Time;durP1;ratioP1;P1;durP2;ratioP2;P2;SDS_P1;SDS_P2;PMS_P1;PMS_P2;Temp;Humidity;BMP_temperature;BMP_pressure;BME280_temperature;BME280_humidity;BME280_pressure;Samples;Min_cycle;Max_cycle;Signal;HPM_P1;HPM_P2
2022/04/21 00:00:37;;;;;;;8.45;6.28;;;;;;;;;;6089615;23;20042;-88
2022/04/21 00:03:07;;;;;;;11.68;7.18;;;;;;;;;;6092864;23;20010;-87
2022/04/21 00:05:33;;;;;;;11.15;6.95;;;;;;;;;;6092159;23;20050;-86
2022/04/21 00:08:00;;;;;;;11.13;6.97;;;;;;;;;;6093639;23;20037;-87
2022/04/21 00:10:42;;;;;;;13.63;6.90;;;;;;;;;;6093557;23;20061;-87
2022/04/21 00:13:08;;;;;;;12.20;7.35;;;;;;;;;;6092423;23;20448;-87
2022/04/21 00:15:35;;;;;;;12.20;7.63;;;;;;;;;;6091404;23;20443;-85
2022/04/21 00:18:01;;;;;;;11.77;6.93;;;;;;;;;;6089028;23;20013;-87
2022/04/21 00:20:28;;;;;;;15.57;7.47;;;;;;;;;;6090597;23;20021;-87
2022/04/21 00:25:39;;;;;;;11.98;7.38;;;;;;;;;;6115417;23;20014;-87
2022/04/21 00:28:06;;;;;;;12.50;7.13;;;;;;;;;;6091518;23;20014;-87
2022/04/21 00:30:32;;;;;;;13.13;8.15;;;;;;;;;;6089082;23;20347;-86
2022/04/21 00:32:58;;;;;;;13.52;6.88;;;;;;;;;;6090960;23;20076;-87
2022/04/21 00:35:25;;;;;;;12.00;7.55;;;;;;;;;;6091363;23;20018;-87
2022/04/21 00:37:55;;;;;;;14.95;7.40;;;;;;;;;;6090984;23;20367;-87
2022/04/21 00:40:23;;;;;;;14.38;7.90;;;;;;;;;;6090216;23;20332;-86
2022/04/21 00:42:50;;;;;;;13.75;8.45;;;;;;;;;;6093204;23;20022;-86
2022/04/21 00:45:18;;;;;;;12.00;8.75;;;;;;;;;;6093326;23;20018;-86
2022/04/21 00:47:49;;;;;;;12.60;8.20;;;;;;;;;;6091025;23;20092;-86
2022/04/21 00:50:17;;;;;;;14.52;8.43;;;;;;;;;;6091678;23;20025;-86
2022/04/21 00:52:45;;;;;;;13.18;8.40;;;;;;;;;;6087321;23;20093;-86
2022/04/21 00:55:11;;;;;;;13.30;8.77;;;;;;;;;;6090473;23;20014;-85
2022/04/21 00:57:41;;;;;;;14.57;8.50;;;;;;;;;;6090647;23;20885;-85
2022/04/21 01:00:08;;;;;;;14.90;8.65;;;;;;;;;;6089224;23;20033;-87
2022/04/21 01:02:46;;;;;;;17.20;8.63;;;;;;;;;;6089577;23;20099;-87
2022/04/21 01:05:17;;;;;;;15.27;8.43;;;;;;;;;;6092565;23;20013;-86
2022/04/21 01:07:46;;;;;;;12.57;8.40;;;;;;;;;;6091675;23;20025;-87
2022/04/21 01:10:19;;;;;;;12.05;8.10;;;;;;;;;;6089604;23;20072;-87
2022/04/21 01:12:51;;;;;;;13.43;8.68;;;;;;;;;;6086605;23;20014;-87
2022/04/21 01:15:17;;;;;;;17.88;8.30;;;;;;;;;;6089483;23;20030;-87
2022/04/21 01:17:45;;;;;;;14.00;8.57;;;;;;;;;;6091379;23;20092;-87
2022/04/21 01:20:27;;;;;;;13.85;8.65;;;;;;;;;;6092454;23;20025;-87
2022/04/21 01:22:56;;;;;;;13.40;8.70;;;;;;;;;;6089475;23;20737;-87
2022/04/21 01:25:22;;;;;;;15.70;8.98;;;;;;;;;;6090671;23;20455;-87
2022/04/21 01:27:53;;;;;;;13.93;8.88;;;;;;;;;;6089569;23;20018;-87
2022/04/21 01:30:19;;;;;;;22.17;9.25;;;;;;;;;;6091860;23;20156;-87
2022/04/21 01:32:49;;;;;;;16.63;9.55;;;;;;;;;;6091170;23;20074;-86
2022/04/21 01:35:15;;;;;;;14.02;8.52;;;;;;;;;;6092514;23;20021;-87
2022/04/21 01:43:16;;;;;;;15.85;8.88;;;;;;;;;;6116609;23;20018;-87
2022/04/21 01:45:43;;;;;;;16.58;9.50;;;;;;;;;;6091591;23;20022;-87
2022/04/21 01:48:10;;;;;;;15.18;9.50;;;;;;;;;;6093928;23;20021;-87
2022/04/21 01:50:36;;;;;;;19.67;10.50;;;;;;;;;;6093214;23;20018;-88
2022/04/21 01:53:02;;;;;;;15.45;9.90;;;;;;;;;;6094706;23;20017;-87
2022/04/21 01:55:32;;;;;;;17.73;10.23;;;;;;;;;;6093266;23;20606;-87
2022/04/21 01:57:58;;;;;;;16.92;10.27;;;;;;;;;;6067626;23;20050;-86
2022/04/21 02:00:24;;;;;;;18.30;10.25;;;;;;;;;;6092521;23;20029;-86
2022/04/21 02:02:50;;;;;;;19.90;10.82;;;;;;;;;;6068291;23;20388;-86
2022/04/21 02:05:17;;;;;;;15.90;9.95;;;;;;;;;;6089305;23;20014;-87
2022/04/21 02:07:44;;;;;;;16.48;10.23;;;;;;;;;;6092234;23;20053;-87
2022/04/21 02:10:10;;;;;;;14.70;9.93;;;;;;;;;;6091581;23;20076;-87
2022/04/21 02:12:37;;;;;;;19.80;10.95;;;;;;;;;;6091112;23;20351;-87
2022/04/21 02:15:03;;;;;;;16.50;10.45;;;;;;;;;;6086323;23;20014;-85
2022/04/21 02:17:32;;;;;;;14.70;10.18;;;;;;;;;;6063088;23;20046;-87
2022/04/21 02:19:59;;;;;;;16.40;10.48;;;;;;;;;;6062035;23;20021;-87
2022/04/21 02:22:25;;;;;;;21.48;10.43;;;;;;;;;;6036234;23;20022;-85
2022/04/21 02:24:52;;;;;;;17.85;10.95;;;;;;;;;;6036287;23;20105;-87
2022/04/21 02:27:18;;;;;;;17.15;9.93;;;;;;;;;;6063541;23;20029;-88
2022/04/21 02:29:44;;;;;;;18.35;11.02;;;;;;;;;;6064993;23;20027;-87
2022/04/21 02:32:10;;;;;;;21.15;10.70;;;;;;;;;;6063318;23;20021;-87
2022/04/21 02:34:57;;;;;;;16.50;10.55;;;;;;;;;;6086014;23;20096;-86
2022/04/21 02:37:23;;;;;;;17.85;11.00;;;;;;;;;;6087812;23;20015;-87
2022/04/21 02:39:50;;;;;;;20.05;10.80;;;;;;;;;;6037353;23;20100;-87
2022/04/21 02:42:17;;;;;;;18.08;11.05;;;;;;;;;;6062798;23;20142;-87
2022/04/21 02:44:43;;;;;;;18.30;11.05;;;;;;;;;;6061270;23;20097;-87
2022/04/21 02:47:09;;;;;;;19.92;11.77;;;;;;;;;;6039253;23;20403;-86
2022/04/21 02:49:36;;;;;;;15.20;10.55;;;;;;;;;;6062429;23;20074;-86
2022/04/21 02:52:10;;;;;;;16.55;10.40;;;;;;;;;;6062193;23;20010;-87
2022/04/21 02:57:20;;;;;;;19.10;11.07;;;;;;;;;;6044524;23;20050;-87
2022/04/21 02:59:51;;;;;;;18.70;11.43;;;;;;;;;;6038503;23;20021;-86
2022/04/21 03:02:21;;;;;;;17.63;10.80;;;;;;;;;;6064256;23;20479;-86
2022/04/21 03:04:47;;;;;;;17.10;10.65;;;;;;;;;;6041989;23;20050;-85
2022/04/21 03:07:13;;;;;;;16.15;11.27;;;;;;;;;;6038380;23;20468;-88
2022/04/21 03:09:40;;;;;;;18.55;11.75;;;;;;;;;;6064125;23;20737;-87
2022/04/21 03:12:07;;;;;;;15.88;11.25;;;;;;;;;;6062654;23;20453;-87
2022/04/21 03:14:41;;;;;;;20.45;11.27;;;;;;;;;;6061075;23;20150;-86
2022/04/21 03:17:08;;;;;;;16.08;10.63;;;;;;;;;;6081608;23;20014;-86
2022/04/21 03:19:35;;;;;;;16.20;11.23;;;;;;;;;;6063237;23;20473;-87
2022/04/21 03:24:46;;;;;;;17.42;11.38;;;;;;;;;;6111936;23;20028;-87
2022/04/21 03:27:12;;;;;;;18.15;11.45;;;;;;;;;;6061838;23;20022;-89
2022/04/21 03:29:39;;;;;;;19.85;12.05;;;;;;;;;;6061850;23;20026;-87
2022/04/21 03:32:09;;;;;;;20.35;11.43;;;;;;;;;;6063453;23;20029;-86
2022/04/21 03:34:37;;;;;;;20.35;12.10;;;;;;;;;;6063282;23;20015;-88
2022/04/21 03:37:03;;;;;;;22.42;11.90;;;;;;;;;;6063608;23;20912;-88
2022/04/21 03:39:29;;;;;;;21.65;11.35;;;;;;;;;;6064958;23;20061;-87
2022/04/21 03:41:55;;;;;;;17.33;11.15;;;;;;;;;;6061524;23;20018;-87
2022/04/21 03:44:22;;;;;;;18.23;11.70;;;;;;;;;;6062226;23;20468;-87
2022/04/21 03:46:49;;;;;;;17.23;11.15;;;;;;;;;;6062877;23;20532;-87
2022/04/21 03:49:15;;;;;;;17.95;10.82;;;;;;;;;;6060916;23;20018;-87
2022/04/21 03:51:41;;;;;;;16.48;11.27;;;;;;;;;;6062059;23;20018;-87
2022/04/21 03:54:08;;;;;;;20.50;11.32;;;;;;;;;;6061831;23;20011;-86
2022/04/21 03:56:35;;;;;;;22.17;11.82;;;;;;;;;;6061645;23;20058;-87
2022/04/21 03:59:01;;;;;;;18.27;11.70;;;;;;;;;;6059629;23;20025;-87
2022/04/21 04:01:27;;;;;;;19.98;11.70;;;;;;;;;;6060037;23;20069;-87
2022/04/21 04:03:53;;;;;;;21.73;11.63;;;;;;;;;;6062850;23;20018;-86
2022/04/21 04:11:54;;;;;;;17.88;11.25;;;;;;;;;;6063593;23;20030;-87
2022/04/21 04:14:21;;;;;;;18.52;11.70;;;9.60;99.90;;;;;;6065079;23;20014;-87
2022/04/21 04:16:49;;;;;;;18.52;11.90;;;5.80;99.90;;;;;;6047550;23;20046;-87
2022/04/21 04:19:15;;;;;;;16.80;11.40;;;5.70;99.90;;;;;;6060728;23;20018;-87
2022/04/21 04:21:42;;;;;;;16.88;11.52;;;5.70;99.90;;;;;;6058574;23;20495;-88
2022/04/21 04:24:07;;;;;;;16.98;11.57;;;5.70;99.90;;;;;;6038271;23;20021;-87
2022/04/21 04:26:34;;;;;;;18.17;12.25;;;5.50;99.90;;;;;;6038046;23;20553;-87
2022/04/21 04:29:00;;;;;;;16.55;10.88;;;5.60;99.90;;;;;;6060449;23;20464;-88
2022/04/21 04:31:26;;;;;;;19.98;12.00;;;5.60;99.90;;;;;;6062987;23;20041;-88
2022/04/21 04:33:54;;;;;;;15.90;11.10;;;5.60;99.90;;;;;;6037702;23;20022;-87
2022/04/21 04:36:28;;;;;;;18.45;12.07;;;5.60;99.90;;;;;;6038917;23;20019;-88
2022/04/21 04:38:54;;;;;;;17.45;11.38;;;5.60;99.90;;;;;;6036889;23;20018;-86
2022/04/21 04:44:08;;;;;;;17.55;10.65;;;5.60;99.90;;;;;;6040960;23;20109;-88
2022/04/21 04:46:42;;;;;;;17.63;10.95;;;5.60;99.90;;;;;;6037701;23;20125;-87
2022/04/21 04:49:09;;;;;;;17.55;11.43;;;5.60;99.90;;;;;;6044536;23;20069;-87
2022/04/21 04:51:38;;;;;;;19.50;11.30;;;5.70;99.90;;;;;;6061783;23;20010;-88
2022/04/21 04:54:06;;;;;;;18.98;11.80;;;5.70;99.90;;;;;;6061959;23;20018;-88
2022/04/21 04:56:33;;;;;;;18.40;11.38;;;5.60;99.90;;;;;;6041011;23;20657;-87
2022/04/21 04:58:59;;;;;;;16.92;10.85;;;5.70;99.90;;;;;;6061628;23;20022;-88
2022/04/21 05:01:39;;;;;;;16.40;10.88;;;5.70;99.90;;;;;;6084608;23;20019;-87
2022/04/21 05:04:07;;;;;;;19.20;12.05;;;5.70;99.90;;;;;;6039387;23;20495;-88
2022/04/21 05:06:53;;;;;;;16.83;10.93;;;5.80;99.90;;;;;;6061586;23;20020;-87
2022/04/21 05:09:24;;;;;;;16.88;11.27;;;5.80;99.90;;;;;;6058773;23;20464;-87
2022/04/21 05:11:52;;;;;;;21.17;11.32;;;;;;;;;;6035696;23;20023;-88
2022/04/21 05:14:26;;;;;;;16.90;11.85;;;;;;;;;;6061351;23;20065;-89
2022/04/21 05:16:52;;;;;;;17.33;11.65;;;;;;;;;;6050895;23;20343;-87
2022/04/21 05:19:19;;;;;;;16.45;11.25;;;;;;;;;;6060299;23;20014;-87
2022/04/21 05:21:47;;;;;;;15.75;10.93;;;;;;;;;;6062692;23;20014;-88
2022/04/21 05:24:13;;;;;;;16.90;11.40;;;;;;;;;;6063338;23;20018;-87
2022/04/21 05:26:40;;;;;;;15.93;11.30;;;;;;;;;;6062310;23;20015;-85
2022/04/21 05:31:59;;;;;;;17.70;11.60;;;;;;;;;;6111922;23;20019;-87
2022/04/21 05:34:26;;;;;;;19.75;11.20;;;;;;;;;;6061969;23;20011;-88
2022/04/21 05:37:01;;;;;;;18.05;11.02;;;;;;;;;;6059642;23;20018;-88
2022/04/21 05:39:28;;;;;;;15.43;9.95;;;;;;;;;;6059791;23;20105;-88
2022/04/21 05:41:55;;;;;;;15.60;10.25;;;5.80;99.90;;;;;;6086974;23;20025;-90
2022/04/21 05:44:21;;;;;;;21.83;10.38;;;;;;;;;;6087352;23;20018;-88
2022/04/21 05:46:48;;;;;;;17.15;10.65;;;;;;;;;;6060254;23;20457;-89
2022/04/21 05:49:14;;;;;;;14.13;9.80;;;;;;;;;;6059721;23;20022;-88
2022/04/21 05:51:43;;;;;;;17.02;9.90;;;;;;;;;;6087226;23;20021;-87
2022/04/21 05:54:10;;;;;;;14.85;10.35;;;;;;;;;;6086493;23;20609;-88
2022/04/21 05:56:37;;;;;;;18.95;10.00;;;;;;;;;;6060194;23;20014;-88
2022/04/21 05:59:03;;;;;;;14.27;9.18;;;;;;;;;;6064757;23;20014;-92
2022/04/21 06:01:30;;;;;;;16.38;9.57;;;;;;;;;;6088085;23;20014;-88
2022/04/21 06:03:56;;;;;;;12.68;9.48;;;;;;;;;;6090632;23;20014;-89
2022/04/21 06:06:23;;;;;;;17.05;9.65;;;;;;;;;;6064989;23;20391;-88
2022/04/21 06:08:49;;;;;;;12.85;9.38;;;;;;;;;;6088835;23;20050;-87
2022/04/21 06:11:16;;;;;;;15.55;9.50;;;;;;;;;;6088238;23;20026;-90
2022/04/21 06:13:42;;;;;;;13.63;9.13;;;;;;;;;;6089100;23;20364;-88
2022/04/21 06:16:09;;;;;;;13.10;8.75;;;;;;;;;;6081598;23;20025;-89
2022/04/21 06:18:38;;;;;;;12.02;8.15;;;;;;;;;;6018708;23;20053;-88
2022/04/21 06:21:08;;;;;;;11.98;8.48;;;;;;;;;;6020127;23;20014;-88
2022/04/21 06:23:35;;;;;;;11.48;8.05;;;;;;;;;;6020307;23;20018;-87
2022/04/21 06:26:17;;;;;;;11.52;7.60;;;;;;;;;;6065025;23;20015;-89
2022/04/21 06:28:44;;;;;;;10.10;7.55;;;;;;;;;;6061444;23;20019;-89
2022/04/21 06:31:18;;;;;;;12.60;7.13;;;;;;;;;;6064227;23;20018;-90
2022/04/21 06:33:47;;;;;;;9.80;6.35;;;;;;;;;;6025312;23;20018;-86
2022/04/21 06:36:13;;;;;;;9.00;6.65;;;;;;;;;;6019890;23;20045;-86
2022/04/21 06:38:40;;;;;;;15.35;6.22;;;;;;;;;;6064561;23;20189;-88
2022/04/21 06:41:06;;;;;;;11.73;6.45;;;;;;;;;;6067786;23;20014;-88
2022/04/21 06:49:06;;;;;;;8.00;5.97;;;;;;;;;;6094369;23;20019;-89
2022/04/21 06:51:42;;;;;;;9.85;6.15;;;;;;;;;;6066182;23;20022;-88
2022/04/21 06:54:13;;;;;;;7.57;5.00;;;;;;;;;;6068330;23;20108;-87
2022/04/21 06:56:40;;;;;;;8.27;4.95;;;;;;;;;;6065974;23;20348;-88
2022/04/21 06:59:06;;;;;;;7.75;4.95;;;;;;;;;;6067553;23;20077;-87
2022/04/21 07:01:32;;;;;;;8.23;4.75;;;;;;;;;;6063757;23;20406;-88
2022/04/21 07:04:02;;;;;;;7.20;5.07;;;;;;;;;;6018133;23;20074;-88
2022/04/21 07:06:34;;;;;;;7.47;4.90;;;;;;;;;;6069451;23;20610;-87
2022/04/21 07:09:00;;;;;;;6.00;4.60;;;;;;;;;;6020339;23;20040;-88
2022/04/21 07:11:26;;;;;;;8.20;4.20;;;;;;;;;;6018673;23;20018;-86
2022/04/21 07:13:53;;;;;;;12.20;4.82;;;;;;;;;;6067366;23;20014;-88
2022/04/21 07:16:19;;;;;;;8.13;4.70;;;;;;;;;;6119594;23;20033;-89
2022/04/21 07:18:46;;;;;;;9.07;4.70;;;;;;;;;;6097831;23;20014;-88
2022/04/21 07:21:12;;;;;;;7.15;4.05;;;;;;;;;;6125170;23;20071;-87
2022/04/21 07:23:39;;;;;;;6.95;4.38;;;;;;;;;;6125892;23;20437;-89
2022/04/21 07:26:08;;;;;;;6.47;4.60;;;;;;;;;;6124943;23;20100;-90
2022/04/21 07:28:35;;;;;;;6.97;4.07;;;;;;;;;;6130112;23;20024;-89
2022/04/21 07:31:01;;;;;;;5.82;3.92;;;;;;;;;;6124035;23;20316;-87
2022/04/21 07:33:27;;;;;;;9.52;4.32;;;;;;;;;;6124877;23;20014;-87
2022/04/21 07:35:53;;;;;;;5.88;4.10;;;;;;;;;;6123823;23;20010;-87
2022/04/21 07:38:21;;;;;;;6.07;4.38;;;;;;;;;;6124499;23;20543;-86
2022/04/21 07:40:53;;;;;;;6.80;4.22;;;;;;;;;;6122519;23;20031;-88
2022/04/21 07:43:20;;;;;;;8.95;4.18;;;;;;;;;;6125263;23;20052;-87
2022/04/21 07:45:49;;;;;;;6.40;3.72;;;;;;;;;;6124297;23;20088;-87
2022/04/21 07:48:15;;;;;;;7.05;3.83;;;;;;;;;;6123926;23;20025;-88
2022/04/21 07:50:42;;;;;;;7.78;3.67;;;;;;;;;;6123386;23;20508;-88
2022/04/21 07:53:14;;;;;;;6.85;3.65;;;;;;;;;;6123989;23;20090;-88
2022/04/21 07:55:41;;;;;;;7.38;3.97;;;;;;;;;;6123916;23;20092;-89
2022/04/21 07:58:13;;;;;;;5.80;3.83;;;;;;;;;;6124037;23;20013;-89
2022/04/21 08:00:40;;;;;;;4.88;3.47;;;;;;;;;;6123102;23;20100;-87
2022/04/21 08:03:10;;;;;;;6.55;3.90;;;;;;;;;;6123149;23;20096;-88
2022/04/21 08:05:41;;;;;;;5.45;3.10;;;;;;;;;;6120722;23;20379;-88
2022/04/21 08:08:11;;;;;;;6.15;3.60;;;;;;;;;;6122966;23;20096;-88
2022/04/21 08:10:37;;;;;;;6.38;4.13;;;;;;;;;;6121322;23;20013;-89
2022/04/21 08:13:03;;;;;;;6.80;2.92;;;;;;;;;;6122898;23;20020;-89
2022/04/21 08:15:33;;;;;;;4.95;3.10;;;;;;;;;;6122523;23;20017;-89
2022/04/21 08:18:00;;;;;;;4.55;2.97;;;;;;;;;;6121419;23;20024;-89
2022/04/21 08:20:28;;;;;;;4.63;3.10;;;;;;;;;;6099196;23;20013;-88
2022/04/21 08:22:57;;;;;;;4.70;3.30;;;;;;;;;;6097477;23;20037;-88
2022/04/21 08:33:44;;;;;;;5.22;3.38;;;;;;;;;;6102098;23;20571;-88
2022/04/21 08:36:11;;;;;;;7.80;2.97;;;;;;;;;;6102886;23;20479;-88
2022/04/21 08:38:40;;;;;;;7.53;3.30;;;;;;;;;;6099512;23;20024;-90
2022/04/21 08:41:08;;;;;;;4.90;3.15;;;;;;;;;;6098639;23;20017;-88
2022/04/21 08:43:40;;;;;;;6.22;3.40;;;;;;;;;;6099092;23;20049;-88
2022/04/21 08:46:09;;;;;;;6.28;3.38;;;;;;;;;;6098764;23;20108;-89
2022/04/21 08:48:35;;;;;;;8.07;3.67;;;;;;;;;;6098977;23;20048;-90
2022/04/21 08:51:02;;;;;;;4.68;3.30;;;;;;;;;;6098696;23;20088;-89
2022/04/21 08:53:31;;;;;;;6.13;3.28;;;;;;;;;;6099577;23;20056;-88
2022/04/21 08:55:58;;;;;;;4.72;2.95;;;;;;;;;;6100153;23;20021;-88
2022/04/21 08:58:24;;;;;;;5.43;2.85;;;;;;;;;;6097849;23;20010;-90
2022/04/21 09:00:53;;;;;;;5.15;3.25;;;;;;;;;;6099346;23;20022;-87
2022/04/21 09:03:22;;;;;;;5.90;3.08;;;;;;;;;;6098834;23;20020;-88
2022/04/21 09:05:48;;;;;;;5.72;3.50;;;;;;;;;;6100088;23;20018;-88
2022/04/21 09:08:18;;;;;;;6.57;3.40;;;;;;;;;;6103081;23;20024;-89
2022/04/21 09:11:03;;;;;;;4.70;3.05;;;;;;;;;;6098699;23;20024;-85
2022/04/21 09:13:36;;;;;;;6.18;3.10;;;;;;;;;;6098202;23;20020;-89
2022/04/21 09:16:04;;;;;;;4.88;2.85;;;;;;;;;;6109241;23;20383;-88
2022/04/21 09:18:56;;;;;;;5.97;2.80;;;;;;;;;;6123495;23;20013;-89
2022/04/21 09:21:22;;;;;;;7.40;3.22;;;6.40;99.90;;;;;;6121066;23;20457;-89
2022/04/21 09:23:48;;;;;;;8.50;3.40;;;14.50;72.10;;;;;;6075017;23;20018;-87
2022/04/21 09:26:17;;;;;;;7.28;3.30;;;14.50;68.00;;;;;;6096302;23;20105;-85
2022/04/21 09:28:56;;;;;;;5.00;3.17;;;14.50;65.30;;;;;;6098759;23;20018;-89
2022/04/21 09:31:27;;;;;;;5.68;3.35;;;14.40;64.60;;;;;;6125813;23;20013;-89
2022/04/21 09:33:58;;;;;;;8.38;2.65;;;;;;;;;;6123836;23;20016;-89
2022/04/21 09:36:24;;;;;;;5.93;3.03;;;;;;;;;;6123225;23;20014;-89
2022/04/21 09:39:01;;;;;;;8.10;3.08;;;14.40;63.40;;;;;;6122458;23;20017;-89
2022/04/21 09:41:29;;;;;;;3.67;2.50;;;14.60;63.10;;;;;;6125052;23;20020;-89
2022/04/21 09:46:07;;;;;;;5.10;2.80;;;14.70;65.10;;;;;;6101120;23;20018;-90
2022/04/21 09:46:56;;;;;;;8.35;3.13;;;14.80;62.90;;;;;;6147730;23;20053;-88
2022/04/21 09:49:49;;;;;;;4.85;3.20;;;14.90;64.20;;;;;;6122880;23;20014;-89
2022/04/21 09:52:27;;;;;;;10.15;3.75;;;14.90;63.70;;;;;;6093805;23;20017;-88
2022/04/21 09:55:04;;;;;;;10.43;3.30;;;15.00;64.00;;;;;;6124537;23;20071;-88
2022/04/21 09:57:33;;;;;;;8.43;3.70;;;15.10;62.90;;;;;;6123534;23;20068;-89
2022/04/21 09:59:59;;;;;;;10.45;3.42;;;15.00;61.60;;;;;;6124781;23;20032;-91
2022/04/21 10:02:29;;;;;;;9.25;3.33;;;15.00;62.30;;;;;;6125556;23;20028;-90
2022/04/21 10:04:56;;;;;;;6.72;3.25;;;;;;;;;;6075189;23;20014;-89
2022/04/21 10:07:26;;;;;;;4.82;2.85;;;15.00;61.90;;;;;;6125218;23;20382;-88
2022/04/21 10:09:52;;;;;;;5.57;3.13;;;15.10;62.30;;;;;;6124729;23;20073;-89
2022/04/21 10:12:18;;;;;;;6.57;3.38;;;;;;;;;;6122858;23;20052;-87
2022/04/21 10:14:45;;;;;;;6.25;3.00;;;15.20;62.90;;;;;;6124758;23;20013;-88
2022/04/21 10:17:14;;;;;;;6.38;3.20;;;;;;;;;;6102921;23;20347;-88
2022/04/21 10:19:42;;;;;;;4.80;2.80;;;;;;;;;;6101567;23;20351;-89
2022/04/21 10:22:13;;;;;;;5.82;3.17;;;;;;;;;;6101059;23;20017;-86
2022/04/21 10:24:43;;;;;;;6.43;3.40;;;;;;;;;;6100327;23;20447;-86
2022/04/21 10:27:28;;;;;;;6.15;3.75;;;;;;;;;;6102020;23;20020;-89
2022/04/21 10:29:56;;;;;;;5.75;3.58;;;;;;;;;;6098292;23;20024;-87
2022/04/21 10:32:22;;;;;;;4.90;2.90;;;;;;;;;;6099362;23;20156;-90
2022/04/21 10:35:00;;;;;;;4.82;3.35;;;;;;;;;;6099282;23;20025;-90
2022/04/21 10:37:32;;;;;;;4.63;3.45;;;;;;;;;;6101703;23;20048;-88
2022/04/21 10:39:59;;;;;;;6.32;3.33;;;;;;;;;;6099710;23;20076;-88
2022/04/21 10:42:25;;;;;;;7.00;3.13;;;;;;;;;;6100313;23;20045;-90
2022/04/21 10:44:53;;;;;;;6.68;3.33;;;15.40;62.10;;;;;;6099973;23;20020;-87
2022/04/21 10:47:38;;;;;;;6.80;3.47;;;15.50;58.90;;;;;;6100202;23;20060;-88
2022/04/21 10:50:11;;;;;;;5.88;3.53;;;15.70;59.90;;;;;;6103696;23;20084;-89
2022/04/21 10:57:50;;;;;;;6.93;2.90;;;15.90;58.00;;;;;;6123379;23;20018;-87
2022/04/21 11:00:33;;;;;;;5.95;3.45;;;16.00;58.20;;;;;;6123551;23;20017;-88
2022/04/21 11:03:10;;;;;;;5.93;3.25;;;16.00;56.90;;;;;;6124731;23;20025;-88
2022/04/21 11:05:42;;;;;;;4.20;3.78;;;16.00;56.20;;;;;;6123000;23;20024;-88
2022/04/21 11:08:14;;;;;;;6.07;3.35;;;16.00;57.30;;;;;;6097616;23;20025;-88
2022/04/21 11:10:42;;;;;;;5.03;3.60;;;16.10;57.60;;;;;;6120980;23;20017;-88
2022/04/21 11:13:16;;;;;;;5.85;3.92;;;16.10;57.60;;;;;;6099309;23;20020;-87
2022/04/21 11:15:53;;;;;;;5.80;3.67;;;16.10;57.60;;;;;;6128460;23;20010;-88
2022/04/21 11:18:29;;;;;;;6.70;3.65;;;16.10;57.40;;;;;;6123637;23;20017;-87
2022/04/21 11:21:26;;;;;;;6.15;3.80;;;16.00;56.30;;;;;;6100106;23;20013;-89
2022/04/21 11:23:52;;;;;;;5.57;3.22;;;16.00;57.00;;;;;;6103212;23;20009;-88
2022/04/21 11:26:24;;;;;;;8.68;3.28;;;16.10;57.50;;;;;;6124380;23;20112;-87
2022/04/21 11:29:45;;;;;;;4.45;3.10;;;16.10;56.30;;;;;;6126960;23;20073;-91
2022/04/21 11:32:16;;;;;;;5.40;3.38;;;16.10;54.10;;;;;;6122306;23;20715;-87
2022/04/21 11:34:42;;;;;;;6.00;3.72;;;16.00;55.60;;;;;;6098293;23;20025;-87
2022/04/21 11:37:08;;;;;;;6.63;3.60;;;15.80;55.20;;;;;;6074075;23;20009;-86
2022/04/21 11:39:40;;;;;;;5.70;3.65;;;15.70;55.90;;;;;;6123010;23;20462;-88
2022/04/21 11:42:06;;;;;;;10.23;3.92;;;15.60;55.70;;;;;;6072983;23;20015;-85
2022/04/21 11:44:32;;;;;;;6.72;3.85;;;15.50;55.70;;;;;;6123969;23;20014;-87
2022/04/21 11:46:57;;;;;;;7.03;3.88;;;15.40;56.50;;;;;;6097349;23;20068;-86
2022/04/21 11:49:29;;;;;;;4.78;3.80;;;15.50;57.40;;;;;;6075575;23;20025;-88
2022/04/21 11:51:55;;;;;;;9.98;4.07;;;15.50;57.20;;;;;;6099395;23;20014;-85
2022/04/21 11:54:21;;;;;;;8.20;4.00;;;15.60;58.10;;;;;;6122381;23;20009;-88
2022/04/21 11:56:51;;;;;;;4.55;3.75;;;15.70;58.40;;;;;;6102612;23;20355;-86
2022/04/21 11:59:17;;;;;;;4.55;3.53;;;15.90;58.50;;;;;;6121226;23;20072;-85
2022/04/21 12:07:16;;;;;;;5.72;3.88;;;;;;;;;;6148288;23;20018;-86
2022/04/21 12:09:43;;;;;;;11.10;4.03;;;;;;;;;;6124928;23;20029;-86
2022/04/21 12:12:11;;;;;;;7.25;4.28;;;;;;;;;;6124758;23;20014;-87
2022/04/21 12:14:41;;;;;;;5.95;4.22;;;;;;;;;;6123711;23;20024;-86
2022/04/21 12:17:14;;;;;;;7.13;3.97;;;;;;;;;;6124292;23;20013;-89
2022/04/21 12:19:44;;;;;;;7.47;3.95;;;;;;;;;;6121830;23;20018;-85
2022/04/21 12:22:17;;;;;;;9.43;4.72;;;;;;;;;;6122402;23;20463;-87
2022/04/21 12:24:45;;;;;;;5.53;4.50;;;;;;;;;;6120729;23;20080;-87
2022/04/21 12:27:20;;;;;;;6.35;4.50;;;;;;;;;;6119804;23;20565;-86
2022/04/21 12:29:46;;;;;;;9.20;4.28;;;;;;;;;;6127995;23;20018;-87
2022/04/21 12:32:19;;;;;;;7.43;4.82;;;;;;;;;;6121366;23;20355;-87
2022/04/21 12:34:45;;;;;;;;;;;;;;;;;;6123873;23;20018;-87
2022/04/21 12:37:23;;;;;;;7.93;4.40;;;;;;;;;;6123508;23;19948;-87
2022/04/21 12:39:56;;;;;;;8.32;5.05;;;;;;;;;;6121065;23;20512;-87
2022/04/21 12:42:22;;;;;;;;;;;;;;;;;;6121607;23;20025;-86
2022/04/21 12:44:50;;;;;;;7.55;4.13;;;;;;;;;;6122336;23;19916;-87
2022/04/21 12:47:17;;;;;;;7.90;4.65;;;;;;;;;;6122889;23;20383;-90
2022/04/21 12:50:03;;;;;;;7.05;5.07;;;;;;;;;;6121911;23;20049;-88
2022/04/21 12:52:33;;;;;;;6.60;4.68;;;;;;;;;;6122233;23;20542;-86
2022/04/21 12:55:00;;;;;;;6.97;4.97;;;;;;;;;;6123723;23;20485;-87
2022/04/21 12:57:28;;;;;;;6.22;4.90;;;;;;;;;;6124587;23;20021;-86
2022/04/21 12:59:57;;;;;;;7.35;5.22;;;;;;;;;;6121400;23;20658;-88
2022/04/21 13:02:35;;;;;;;7.18;4.80;;;;;;;;;;6124063;23;20621;-90
2022/04/21 13:05:02;;;;;;;7.70;4.72;;;;;;;;;;6122025;23;20018;-86
2022/04/21 13:07:31;;;;;;;6.97;5.00;;;;;;;;;;6122415;23;20017;-86
2022/04/21 13:09:58;;;;;;;7.35;4.80;;;;;;;;;;6120020;23;20486;-86
2022/04/21 13:12:25;;;;;;;7.55;4.90;;;;;;;;;;6145756;23;20390;-88
2022/04/21 13:14:56;;;;;;;11.32;4.70;;;;;;;;;;6121965;23;20095;-86
2022/04/21 13:17:23;;;;;;;6.38;4.10;;;;;;;;;;6120885;23;20025;-87
2022/04/21 13:19:49;;;;;;;6.82;3.83;;;;;;;;;;6097230;23;20013;-88
2022/04/21 13:22:17;;;;;;;6.28;3.70;;;;;;;;;;6096845;23;20022;-87
2022/04/21 13:24:44;;;;;;;4.75;3.30;;;;;;;;;;6096673;23;20067;-88
2022/04/21 13:27:10;;;;;;;10.35;4.43;;;;;;;;;;6096396;23;20017;-87
2022/04/21 13:29:36;;;;;;;6.70;4.30;;;16.10;58.40;;;;;;6097348;23;20013;-87
2022/04/21 13:34:47;;;;;;;5.00;3.90;;;;;;;;;;6104169;23;20454;-90
2022/04/21 13:37:13;;;;;;;6.63;3.92;;;;;;;;;;6098031;23;20136;-89
2022/04/21 13:39:40;;;;;;;6.38;4.13;;;;;;;;;;6100033;23;20025;-88
2022/04/21 13:44:55;;;;;;;6.90;4.35;;;19.40;52.60;;;;;;6100544;23;20018;-87
2022/04/21 13:47:28;;;;;;;7.05;4.45;;;20.80;50.50;;;;;;6098198;23;20648;-86
2022/04/21 13:49:53;;;;;;;9.00;4.50;;;20.70;49.90;;;;;;6123617;23;20020;-85
2022/04/21 13:52:27;;;;;;;5.70;4.80;;;20.60;49.70;;;;;;6097689;23;20009;-85
2022/04/21 13:55:04;;;;;;;5.32;4.60;;;20.70;49.00;;;;;;6118007;23;20009;-85
2022/04/21 13:57:30;;;;;;;6.47;5.00;;;20.90;49.40;;;;;;6050883;23;20378;-87
2022/04/21 13:59:56;;;;;;;7.40;5.20;;;20.90;49.20;;;;;;6098786;23;20076;-90
2022/04/21 14:02:22;;;;;;;7.63;4.97;;;21.00;49.30;;;;;;6098779;23;20025;-87
2022/04/21 14:04:48;;;;;;;9.02;5.00;;;21.10;49.10;;;;;;6123717;23;20096;-88
2022/04/21 14:07:14;;;;;;;7.43;5.13;;;21.30;49.10;;;;;;6097644;23;20022;-88
2022/04/21 14:12:41;;;;;;;9.00;5.38;;;21.30;48.20;;;;;;6101415;23;20017;-87
2022/04/21 14:15:07;;;;;;;5.38;4.53;;;21.80;48.30;;;;;;6100257;23;20462;-85
2022/04/21 14:17:37;;;;;;;7.03;4.80;;;22.50;48.20;;;;;;6096223;23;20010;-88
2022/04/21 14:20:10;;;;;;;6.90;5.03;;;23.00;47.00;;;;;;6069440;23;20033;-88
2022/04/21 14:22:36;;;;;;;7.22;5.25;;;;;;;;;;6042843;23;20628;-88
2022/04/21 14:25:02;;;;;;;8.10;5.20;;;;;;;;;;6067341;23;20064;-87
2022/04/21 14:27:29;;;;;;;8.57;5.05;;;;;;;;;;6069313;23;20629;-89
2022/04/21 14:29:55;;;;;;;6.68;4.82;;;;;;;;;;6069045;23;20025;-88
2022/04/21 14:32:21;;;;;;;6.75;4.50;;;;;;;;;;6069304;23;20477;-85
2022/04/21 14:34:48;;;;;;;8.45;5.40;;;;;;;;;;6065975;23;20016;-87
2022/04/21 14:45:38;;;;;;;6.70;5.35;;;;;;;;;;6068526;23;20026;-84
2022/04/21 14:48:05;;;;;;;7.07;5.90;;;;;;;;;;6067462;23;20045;-84
2022/04/21 14:50:31;;;;;;;7.18;5.13;;;;;;;;;;6069390;23;20097;-85
2022/04/21 14:52:57;;;;;;;9.00;4.32;;;;;;;;;;6067066;23;20797;-88
2022/04/21 14:55:24;;;;;;;7.68;5.45;;;;;;;;;;6063846;23;20044;-87
2022/04/21 14:57:50;;;;;;;9.30;5.00;;;;;;;;;;6067707;23;20046;-86
2022/04/21 15:00:17;;;;;;;7.72;4.85;;;;;;;;;;6067195;23;20045;-87
2022/04/21 15:02:46;;;;;;;8.27;5.15;;;23.40;46.30;;;;;;6068616;23;20644;-88
2022/04/21 15:05:11;;;;;;;7.53;5.88;;;24.30;43.20;;;;;;6088723;23;20026;-85
2022/04/21 15:07:37;;;;;;;7.97;4.70;;;;;;;;;;6067813;23;20064;-85
2022/04/21 15:10:07;;;;;;;6.28;3.85;;;;;;;;;;6090155;23;20704;-86
2022/04/21 15:12:41;;;;;;;5.63;4.15;;;;;;;;;;6069248;23;20185;-86
2022/04/21 15:15:11;;;;;;;8.20;4.05;;;;;;;;;;6069398;23;20010;-85
2022/04/21 15:17:40;;;;;;;6.32;4.20;;;;;;;;;;6070540;23;20016;-86
2022/04/21 15:20:09;;;;;;;6.13;4.35;;;;;;;;;;6094808;23;20022;-84